createdAt,value
2023-03-28T00:03:09.855Z,2.10
2023-03-28T00:08:16.054Z,1.90
2023-03-28T00:13:30.908Z,2.63
2023-03-28T00:18:43.482Z,2.27
2023-03-28T00:24:13.610Z,2.07
2023-03-28T00:29:23.273Z,3.60
2023-03-28T00:34:33.763Z,1.67
2023-03-28T00:39:40.317Z,1.87
2023-03-28T00:45:03.589Z,2.00
2023-03-28T00:50:24.648Z,1.57
2023-03-28T00:55:45.483Z,3.07
2023-03-28T01:01:04.227Z,3.07
2023-03-28T01:06:30.750Z,2.10
2023-03-28T01:11:41.349Z,2.30
2023-03-28T01:16:47.900Z,2.57
2023-03-28T01:22:09.970Z,1.70
2023-03-28T01:27:40.969Z,2.57
2023-03-28T01:33:21.924Z,2.20
2023-03-28T01:39:07.953Z,1.57
2023-03-28T01:50:20.229Z,1.70
2023-03-28T01:55:48.911Z,2.20
2023-03-28T02:01:08.554Z,2.10
2023-03-28T02:06:16.124Z,2.07
2023-03-28T02:11:18.287Z,1.77
2023-03-28T02:16:32.197Z,2.57
2023-03-28T02:22:11.961Z,2.43
2023-03-28T02:27:18.878Z,1.93
2023-03-28T02:38:04.901Z,2.33
2023-03-28T02:43:36.045Z,2.47
2023-03-28T02:49:24.679Z,1.73
2023-03-28T03:05:50.619Z,1.93
2023-03-28T03:11:02.979Z,2.90
2023-03-28T03:16:05.621Z,1.80
2023-03-28T03:21:20.783Z,2.50
2023-03-28T03:26:23.992Z,3.27
2023-03-28T03:31:54.477Z,1.80
2023-03-28T03:37:20.017Z,2.43
2023-03-28T03:42:38.284Z,2.73
2023-03-28T03:48:35.912Z,2.20
2023-03-28T03:53:54.157Z,1.60
2023-03-28T03:59:05.474Z,2.17
2023-03-28T04:04:18.764Z,3.50
2023-03-28T04:15:04.153Z,2.10
2023-03-28T04:20:16.361Z,1.93
2023-03-28T04:25:30.569Z,2.43
2023-03-28T04:30:33.743Z,2.00
2023-03-28T04:36:08.162Z,2.10
2023-03-28T04:41:10.368Z,2.83
2023-03-28T04:46:22.808Z,2.47
2023-03-28T04:51:31.364Z,2.90
2023-03-28T04:56:41.595Z,3.13
2023-03-28T05:02:09.943Z,3.40
2023-03-28T05:07:11.977Z,3.20
2023-03-28T05:12:19.248Z,2.50
2023-03-28T05:17:25.641Z,3.17
2023-03-28T05:22:36.712Z,3.30
2023-03-28T05:27:56.890Z,3.10
2023-03-28T05:33:09.026Z,3.17
2023-03-28T05:38:23.291Z,3.30
2023-03-28T05:43:30.907Z,3.40
2023-03-28T05:48:43.327Z,3.67
2023-03-28T05:53:56.280Z,3.10
2023-03-28T05:59:03.727Z,3.63
2023-03-28T06:18:10.000Z,3.97
2023-03-28T06:34:42.681Z,3.57
2023-03-28T06:40:07.086Z,3.27
2023-03-28T06:51:10.840Z,3.63
2023-03-28T07:02:37.325Z,5.17
2023-03-28T07:08:17.131Z,4.43
2023-03-28T07:14:16.807Z,4.73
2023-03-28T07:19:30.387Z,4.93
2023-03-28T07:25:06.740Z,4.83
2023-03-28T08:21:26.806Z,3.93
2023-03-28T08:31:53.362Z,4.20
2023-03-28T08:37:20.556Z,3.63
2023-03-28T08:42:30.812Z,3.60
2023-03-28T08:53:48.963Z,2.40
2023-03-28T08:59:40.450Z,3.40
2023-03-28T09:05:22.427Z,3.00
2023-03-28T09:10:47.386Z,2.70
2023-03-28T09:16:36.853Z,3.47
2023-03-28T09:22:26.862Z,2.30
2023-03-28T09:28:38.213Z,2.23
2023-03-28T09:33:52.052Z,2.87
2023-03-28T09:45:48.452Z,2.10
2023-03-28T09:51:05.963Z,2.20
2023-03-28T09:56:23.626Z,2.00
2023-03-28T10:01:42.614Z,1.80
2023-03-28T10:06:49.190Z,1.70
2023-03-28T10:12:14.969Z,1.63
2023-03-28T10:17:44.889Z,1.20
2023-03-28T10:29:04.509Z,0.90
2023-03-28T10:34:22.916Z,1.40
2023-03-28T10:39:37.905Z,1.20
2023-03-28T10:44:47.289Z,1.10
2023-03-28T10:51:03.670Z,1.07
2023-03-28T10:55:43.925Z,1.60
2023-03-28T11:01:32.662Z,1.27
2023-03-28T11:07:23.021Z,1.83
2023-03-28T11:12:51.253Z,2.30
2023-03-28T11:23:58.334Z,1.90
2023-03-28T11:29:40.497Z,2.23
2023-03-28T11:35:21.712Z,1.90
2023-03-28T11:40:47.778Z,3.03
2023-03-28T11:45:59.993Z,2.40
2023-03-28T11:51:35.491Z,1.90
2023-03-28T11:57:05.972Z,2.57
2023-03-28T12:02:52.727Z,2.90
2023-03-28T12:07:59.423Z,2.67
2023-03-28T12:13:15.980Z,2.80
2023-03-28T12:18:59.376Z,2.67
2023-03-28T12:24:22.935Z,2.80
2023-03-28T12:29:55.450Z,2.53
2023-03-28T12:35:19.058Z,3.03
2023-03-28T12:40:50.519Z,2.43
2023-03-28T12:46:11.583Z,2.10
2023-03-28T12:51:31.671Z,2.33
2023-03-28T12:56:45.830Z,1.80
2023-03-28T13:01:59.521Z,2.37
2023-03-28T13:07:29.311Z,1.63
2023-03-28T13:13:11.200Z,2.63
2023-03-28T13:18:36.060Z,1.97
2023-03-28T13:23:52.047Z,1.83
2023-03-28T13:29:05.925Z,1.93
2023-03-28T13:34:36.791Z,1.77
2023-03-28T13:39:44.511Z,2.20
2023-03-28T13:44:58.696Z,1.80
2023-03-28T13:50:31.589Z,1.97
2023-03-28T13:55:43.641Z,1.50
2023-03-28T14:00:45.493Z,1.70
2023-03-28T14:05:47.472Z,2.77
2023-03-28T14:10:55.572Z,2.30
2023-03-28T14:16:09.783Z,2.37
2023-03-28T14:21:14.091Z,1.77
2023-03-28T14:26:22.169Z,2.00
2023-03-28T14:31:45.771Z,1.63
2023-03-28T14:37:22.522Z,1.93
2023-03-28T14:42:37.238Z,1.57
2023-03-28T14:47:46.250Z,1.83
2023-03-28T14:52:53.289Z,2.17
2023-03-28T14:58:09.430Z,1.70
2023-03-28T15:03:26.846Z,2.03
2023-03-28T15:08:45.123Z,2.00
2023-03-28T15:13:56.182Z,1.60
2023-03-28T15:19:08.184Z,1.70
2023-03-28T15:24:21.157Z,2.07
2023-03-28T15:29:32.880Z,2.50
2023-03-28T15:52:20.783Z,1.77
2023-03-28T15:57:51.025Z,2.00
2023-03-28T16:02:53.062Z,1.87
2023-03-28T16:08:02.822Z,1.83
2023-03-28T16:13:46.611Z,2.30
2023-03-28T16:19:52.183Z,2.20
2023-03-28T16:24:55.079Z,1.50
2023-03-28T16:36:22.886Z,1.80
2023-03-28T16:42:14.470Z,1.17
2023-03-28T16:46:53.438Z,2.27
2023-03-28T16:52:04.894Z,1.50
2023-03-28T17:04:29.415Z,1.20
2023-03-28T17:09:39.952Z,1.33
2023-03-28T17:20:27.285Z,1.60
2023-03-28T17:59:02.517Z,1.47
2023-03-28T18:04:13.303Z,1.60
2023-03-28T18:10:11.168Z,1.50
2023-03-28T18:15:13.235Z,1.63
2023-03-28T18:21:15.506Z,1.73
2023-03-28T19:15:31.396Z,1.10
2023-03-28T19:31:48.182Z,1.20
2023-03-28T19:37:10.600Z,2.17
2023-03-28T19:42:18.487Z,3.17
2023-03-28T19:47:25.291Z,2.30
2023-03-28T19:57:54.158Z,1.70
2023-03-28T20:03:00.775Z,1.90
2023-03-28T20:13:43.955Z,2.27
2023-03-28T20:19:09.807Z,1.50
2023-03-28T20:24:12.044Z,1.60
2023-03-28T20:29:27.221Z,2.17
2023-03-28T20:34:36.906Z,1.80
2023-03-28T20:39:38.864Z,1.73
2023-03-28T20:45:43.082Z,1.60
2023-03-28T20:56:04.810Z,2.20
2023-03-28T21:01:33.182Z,1.90
2023-03-28T21:31:18.689Z,2.27
2023-03-28T21:41:44.348Z,2.33
2023-03-28T21:46:46.562Z,2.63
2023-03-28T21:51:57.092Z,2.40
2023-03-28T21:57:00.207Z,3.13
2023-03-28T22:02:02.323Z,2.93
2023-03-28T22:07:05.244Z,2.80
2023-03-28T22:12:13.394Z,2.47
2023-03-28T22:17:16.092Z,2.27
2023-03-28T22:22:20.915Z,2.47
2023-03-28T22:27:31.188Z,3.33
2023-03-28T22:32:37.267Z,3.37
2023-03-28T22:37:44.061Z,3.20
2023-03-28T22:42:47.088Z,2.30
2023-03-28T22:47:52.358Z,3.00
2023-03-28T22:52:54.778Z,3.17
2023-03-28T22:57:58.187Z,3.20
2023-03-28T23:03:01.563Z,4.43
2023-03-28T23:08:08.810Z,3.30
2023-03-28T23:13:19.000Z,3.47
2023-03-28T23:18:20.999Z,2.87
2023-03-28T23:23:22.995Z,3.13
2023-03-28T23:28:38.102Z,3.10
2023-03-28T23:33:40.361Z,3.07
2023-03-28T23:38:45.431Z,3.20
2023-03-28T23:43:50.574Z,3.50
2023-03-28T23:48:53.592Z,2.93
2023-03-28T23:53:56.508Z,2.80
2023-03-28T23:59:04.317Z,2.63
